Time;durP1;ratioP1;P1;durP2;ratioP2;P2;SDS_P1;SDS_P2;PMS_P1;PMS_P2;Temp;Humidity;BMP_temperature;BMP_pressure;BME280_temperature;BME280_humidity;BME280_pressure;Samples;Min_cycle;Max_cycle;Signal;HPM_P1;HPM_P2
2022/08/07 00:02:27;;;;;;;4.57;3.63;;;19.40;1.00;;;;;;6138777;23;20112;-91
2022/08/07 00:05:10;;;;;;;5.25;4.07;;;19.40;1.00;;;;;;6138523;23;20017;-92
2022/08/07 00:07:46;;;;;;;5.10;4.35;;;19.30;1.00;;;;;;6137292;23;20013;-92
2022/08/07 00:10:24;;;;;;;6.22;4.72;;;19.30;1.00;;;;;;6138047;23;20017;-91
2022/08/07 00:12:58;;;;;;;6.90;4.65;;;19.30;1.00;;;;;;6137645;23;20444;-91
2022/08/07 00:15:49;;;;;;;6.35;4.95;;;19.20;1.00;;;;;;6140487;23;20334;-91
2022/08/07 00:18:21;;;;;;;5.68;4.13;;;19.20;1.00;;;;;;6136673;23;20041;-92
2022/08/07 00:20:54;;;;;;;4.82;4.00;;;19.20;1.00;;;;;;6137498;23;20064;-92
2022/08/07 00:23:24;;;;;;;5.07;3.85;;;19.20;1.00;;;;;;6197979;23;20024;-91
2022/08/07 00:25:54;;;;;;;5.45;3.92;;;19.20;1.00;;;;;;6164301;23;20085;-91
2022/08/07 00:28:30;;;;;;;4.63;4.13;;;19.10;1.00;;;;;;6189789;23;20017;-89
2022/08/07 00:31:09;;;;;;;6.32;4.03;;;19.10;1.00;;;;;;6190840;23;20005;-89
2022/08/07 00:33:42;;;;;;;5.90;4.43;;;19.10;1.00;;;;;;6188069;23;20001;-92
2022/08/07 00:36:14;;;;;;;5.90;4.47;;;19.00;1.00;;;;;;6153501;23;20024;-91
2022/08/07 00:38:48;;;;;;;4.97;3.67;;;19.00;1.00;;;;;;6137582;23;20017;-92
2022/08/07 00:41:26;;;;;;;5.72;4.30;;;19.00;1.00;;;;;;6168594;23;20025;-91
2022/08/07 00:43:54;;;;;;;6.32;4.47;;;19.00;1.00;;;;;;6160905;23;20104;-91
2022/08/07 00:46:30;;;;;;;6.00;4.07;;;18.90;1.00;;;;;;6163153;23;20017;-92
2022/08/07 00:49:02;;;;;;;7.32;4.00;;;18.90;1.00;;;;;;6161228;23;20024;-91
2022/08/07 00:51:30;;;;;;;5.55;3.80;;;18.90;1.00;;;;;;6161025;23;20051;-92
2022/08/07 00:54:20;;;;;;;5.18;4.07;;;18.80;1.00;;;;;;6190528;23;20014;-91
2022/08/07 00:56:49;;;;;;;4.85;3.67;;;18.80;1.00;;;;;;6160555;23;20047;-91
2022/08/07 00:59:19;;;;;;;6.72;4.85;;;18.80;1.00;;;;;;6160845;23;20021;-90
2022/08/07 01:02:14;;;;;;;5.43;4.13;;;18.80;1.00;;;;;;6163692;23;20049;-91
2022/08/07 01:04:56;;;;;;;5.32;4.43;;;18.80;1.00;;;;;;6187723;23;20400;-91
2022/08/07 01:07:27;;;;;;;5.90;3.85;;;18.70;1.00;;;;;;6160763;23;20377;-92
2022/08/07 01:09:57;;;;;;;5.75;4.15;;;18.70;1.00;;;;;;6160782;23;20080;-91
2022/08/07 01:12:40;;;;;;;4.90;4.05;;;18.70;1.00;;;;;;6210444;23;20017;-91
2022/08/07 01:15:24;;;;;;;6.28;4.28;;;18.60;1.00;;;;;;6162974;23;20149;-91
2022/08/07 01:18:12;;;;;;;7.60;4.03;;;18.60;1.00;;;;;;6164451;23;20021;-92
2022/08/07 01:21:10;;;;;;;6.05;4.00;;;18.60;1.00;;;;;;6163955;23;20029;-92
2022/08/07 01:23:52;;;;;;;5.28;3.90;;;18.50;1.00;;;;;;6186886;23;20036;-92
2022/08/07 01:26:23;;;;;;;6.77;4.53;;;18.50;1.00;;;;;;6161570;23;20064;-91
2022/08/07 01:28:57;;;;;;;5.90;3.83;;;18.50;1.00;;;;;;6163769;23;20400;-92
2022/08/07 01:31:32;;;;;;;5.60;3.70;;;18.50;1.00;;;;;;6163447;23;20104;-91
2022/08/07 01:34:16;;;;;;;4.85;3.38;;;18.40;1.00;;;;;;6166041;23;20017;-91
2022/08/07 01:36:49;;;;;;;5.32;4.00;;;18.40;1.00;;;;;;6186104;23;20021;-93
2022/08/07 01:39:27;;;;;;;4.82;3.95;;;18.40;1.00;;;;;;6164501;23;20324;-92
2022/08/07 01:42:21;;;;;;;5.70;3.92;;;18.40;1.00;;;;;;6167037;23;20020;-91
2022/08/07 01:45:11;;;;;;;5.95;3.97;;;18.30;1.00;;;;;;6166479;23;20029;-91
2022/08/07 01:47:52;;;;;;;4.63;3.55;;;18.30;1.00;;;;;;6189194;23;20017;-91
2022/08/07 01:50:49;;;;;;;5.40;4.07;;;18.30;1.00;;;;;;6167611;23;20055;-91
2022/08/07 01:53:24;;;;;;;5.65;4.10;;;18.30;1.00;;;;;;6187550;23;20039;-92
2022/08/07 01:56:21;;;;;;;6.18;3.83;;;18.20;1.00;;;;;;6191713;23;20108;-91
2022/08/07 01:59:04;;;;;;;4.75;3.90;;;18.20;1.00;;;;;;6188856;23;20021;-92
2022/08/07 02:01:50;;;;;;;6.22;3.17;;;18.20;1.00;;;;;;6186957;23;20103;-91
2022/08/07 02:04:41;;;;;;;8.07;4.10;;;18.20;1.00;;;;;;6189582;23;20021;-91
2022/08/07 02:07:31;;;;;;;5.82;4.03;;;18.10;1.00;;;;;;6164701;23;20021;-91
2022/08/07 02:10:25;;;;;;;4.57;3.45;;;18.10;1.00;;;;;;6187234;23;20471;-91
2022/08/07 02:13:01;;;;;;;4.13;3.40;;;18.10;1.00;;;;;;6162791;23;20017;-91
2022/08/07 02:15:37;;;;;;;5.07;3.50;;;18.10;1.00;;;;;;6186877;23;20025;-91
2022/08/07 02:18:11;;;;;;;6.07;4.18;;;18.00;1.00;;;;;;6186360;23;20014;-91
2022/08/07 02:20:41;;;;;;;5.47;4.05;;;18.00;1.00;;;;;;6162245;23;20100;-92
2022/08/07 02:23:20;;;;;;;5.00;3.95;;;18.00;1.00;;;;;;6187423;23;20020;-91
2022/08/07 02:25:53;;;;;;;5.10;3.80;;;18.00;1.00;;;;;;6187268;23;20021;-91
2022/08/07 02:28:41;;;;;;;7.00;4.15;;;17.90;1.00;;;;;;6165834;23;20100;-92
2022/08/07 02:31:11;;;;;;;4.88;3.78;;;17.90;1.00;;;;;;6161784;23;20024;-92
2022/08/07 02:33:59;;;;;;;4.60;3.58;;;17.90;1.00;;;;;;6164780;23;20087;-92
2022/08/07 02:36:48;;;;;;;6.78;3.40;;;17.90;1.00;;;;;;6165322;23;20025;-91
2022/08/07 02:39:21;;;;;;;5.22;3.70;;;17.80;1.00;;;;;;6211049;23;20083;-91
2022/08/07 02:42:17;;;;;;;4.32;3.58;;;17.80;1.00;;;;;;6167147;23;20047;-91
2022/08/07 02:44:51;;;;;;;8.27;3.95;;;17.80;1.00;;;;;;6187105;23;20077;-92
2022/08/07 02:47:25;;;;;;;5.50;3.92;;;17.80;1.00;;;;;;6162814;23;20016;-91
2022/08/07 02:50:08;;;;;;;6.53;3.75;;;17.80;1.00;;;;;;6189227;23;20052;-90
2022/08/07 02:52:46;;;;;;;5.10;3.72;;;17.70;1.00;;;;;;6162399;23;20021;-92
2022/08/07 02:55:22;;;;;;;5.32;3.88;;;17.70;1.00;;;;;;6161965;23;20072;-91
2022/08/07 02:58:12;;;;;;;6.60;4.07;;;17.70;1.00;;;;;;6165617;23;20103;-92
2022/08/07 03:00:44;;;;;;;7.25;3.92;;;17.60;1.00;;;;;;6163189;23;20021;-92
2022/08/07 03:03:17;;;;;;;6.65;4.32;;;17.60;1.00;;;;;;6162772;23;20059;-91
2022/08/07 03:05:55;;;;;;;5.40;3.92;;;17.60;1.00;;;;;;6186158;23;20017;-91
2022/08/07 03:08:26;;;;;;;7.13;3.92;;;17.60;1.00;;;;;;6162963;23;20049;-91
2022/08/07 03:11:03;;;;;;;4.68;3.58;;;17.50;1.00;;;;;;6189943;23;20013;-90
2022/08/07 03:13:44;;;;;;;6.55;4.30;;;17.60;1.00;;;;;;6215467;23;20008;-90
2022/08/07 03:16:19;;;;;;;6.55;4.03;;;17.50;1.00;;;;;;6190155;23;19997;-92
2022/08/07 03:19:00;;;;;;;5.30;3.70;;;17.50;1.00;;;;;;6190784;23;20021;-91
2022/08/07 03:21:42;;;;;;;4.15;3.30;;;17.50;1.00;;;;;;6190034;23;20001;-92
2022/08/07 03:24:28;;;;;;;5.60;3.58;;;17.50;1.00;;;;;;6184615;23;20024;-91
2022/08/07 03:27:03;;;;;;;4.13;3.13;;;17.40;1.00;;;;;;6163260;23;20024;-91
2022/08/07 03:29:50;;;;;;;4.90;3.40;;;17.40;1.00;;;;;;6164015;23;20021;-91
2022/08/07 03:32:28;;;;;;;4.50;3.83;;;17.40;1.00;;;;;;6163247;23;20017;-91
2022/08/07 03:35:01;;;;;;;5.43;4.03;;;17.40;1.00;;;;;;6162018;23;20016;-92
2022/08/07 03:37:52;;;;;;;5.90;3.65;;;17.40;1.00;;;;;;6165763;23;20028;-91
2022/08/07 03:40:32;;;;;;;6.28;4.50;;;17.30;1.00;;;;;;6189327;23;20436;-92
2022/08/07 03:43:14;;;;;;;4.05;3.58;;;17.40;1.00;;;;;;6161383;23;20075;-91
2022/08/07 03:45:52;;;;;;;7.05;3.90;;;17.30;1.00;;;;;;6137562;23;20028;-92
2022/08/07 03:48:25;;;;;;;7.88;3.97;;;17.30;1.00;;;;;;6162938;23;20018;-91
2022/08/07 03:50:59;;;;;;;5.43;3.67;;;17.30;1.00;;;;;;6161650;23;20024;-91
2022/08/07 03:53:40;;;;;;;6.68;3.65;;;17.30;1.00;;;;;;6161143;23;20440;-92
2022/08/07 03:56:32;;;;;;;4.45;3.75;;;17.20;1.00;;;;;;6160689;23;20025;-91
2022/08/07 03:59:10;;;;;;;5.60;3.47;;;17.20;1.00;;;;;;6162001;23;20025;-91
2022/08/07 04:01:47;;;;;;;5.53;4.00;;;17.20;1.00;;;;;;6160709;23;20020;-92
2022/08/07 04:04:21;;;;;;;5.03;4.32;;;17.20;1.00;;;;;;6137701;23;20028;-91
2022/08/07 04:07:01;;;;;;;5.45;4.15;;;17.10;1.00;;;;;;6183183;23;20426;-92
2022/08/07 04:09:46;;;;;;;6.13;4.38;;;17.10;1.00;;;;;;6139411;23;20100;-91
2022/08/07 04:12:23;;;;;;;5.97;3.88;;;17.10;1.00;;;;;;6160315;23;20104;-91
2022/08/07 04:15:05;;;;;;;4.63;3.78;;;17.10;1.00;;;;;;6137441;23;20048;-91
2022/08/07 04:17:42;;;;;;;5.07;3.63;;;17.10;1.00;;;;;;6160923;23;20047;-91
2022/08/07 04:20:32;;;;;;;5.80;3.65;;;17.10;1.00;;;;;;6161736;23;20021;-91
2022/08/07 04:23:04;;;;;;;7.25;4.57;;;17.00;1.00;;;;;;6185810;23;20048;-91
2022/08/07 04:25:48;;;;;;;6.28;3.97;;;17.00;1.00;;;;;;6161400;23;20029;-91
2022/08/07 04:28:26;;;;;;;4.72;3.95;;;17.00;1.00;;;;;;6160839;23;20104;-92
2022/08/07 04:31:04;;;;;;;7.47;4.63;;;17.00;1.00;;;;;;6160596;23;20021;-91
2022/08/07 04:33:50;;;;;;;4.60;3.40;;;17.00;1.00;;;;;;6139276;23;20025;-91
2022/08/07 04:36:23;;;;;;;4.28;3.65;;;16.90;1.00;;;;;;6183842;23;20021;-91
2022/08/07 04:38:57;;;;;;;5.60;3.92;;;16.90;1.00;;;;;;6161728;23;20034;-91
2022/08/07 04:41:27;;;;;;;5.68;3.72;;;16.90;1.00;;;;;;6141950;23;20932;-90
2022/08/07 04:44:07;;;;;;;7.72;4.38;;;16.90;1.00;;;;;;6161239;23;20028;-91
2022/08/07 04:47:08;;;;;;;4.63;4.15;;;16.90;1.00;;;;;;6160635;23;20349;-91
2022/08/07 04:50:06;;;;;;;4.70;3.83;;;16.90;1.00;;;;;;6140299;23;20027;-90
2022/08/07 04:52:55;;;;;;;7.63;4.00;;;16.90;1.00;;;;;;6160287;23;20021;-90
2022/08/07 04:56:05;;;;;;;5.22;3.90;;;16.90;1.00;;;;;;6137486;23;20017;-91
2022/08/07 04:59:54;;;;;;;4.43;3.15;;;16.90;1.00;;;;;;6140867;23;20092;-91
2022/08/07 05:03:20;;;;;;;5.18;3.47;;;16.90;1.00;;;;;;6105722;23;20021;-92
2022/08/07 05:06:18;;;;;;;6.78;3.97;;;16.80;1.00;;;;;;6163100;23;20437;-91
2022/08/07 05:09:03;;;;;;;7.38;4.43;;;16.80;1.00;;;;;;6139586;23;20071;-90
2022/08/07 05:11:47;;;;;;;5.15;3.65;;;16.80;1.00;;;;;;6139516;23;20028;-90
2022/08/07 05:14:35;;;;;;;5.82;3.83;;;16.80;1.00;;;;;;6141622;23;20334;-90
2022/08/07 05:17:27;;;;;;;5.95;4.07;;;16.80;1.00;;;;;;6142228;23;20025;-90
2022/08/07 05:20:22;;;;;;;4.95;3.90;;;16.80;1.00;;;;;;6167077;23;20025;-91
2022/08/07 05:22:56;;;;;;;6.00;3.50;;;16.80;1.00;;;;;;6189719;23;20100;-90
2022/08/07 05:25:30;;;;;;;6.05;3.85;;;16.80;1.00;;;;;;6139044;23;20032;-90
2022/08/07 05:28:21;;;;;;;7.07;3.80;;;16.80;1.00;;;;;;6142210;23;20021;-90
2022/08/07 05:30:58;;;;;;;4.63;3.40;;;16.80;1.00;;;;;;6138774;23;20025;-91
2022/08/07 05:33:35;;;;;;;5.13;3.80;;;16.80;1.00;;;;;;6139688;23;20017;-90
2022/08/07 05:36:08;;;;;;;4.93;3.83;;;16.80;1.00;;;;;;6138815;23;20032;-91
2022/08/07 05:38:51;;;;;;;6.30;4.22;;;16.80;1.00;;;;;;6140492;23;20047;-91
2022/08/07 05:41:37;;;;;;;7.32;3.75;;;16.80;1.00;;;;;;6150116;23;20024;-90
2022/08/07 05:44:27;;;;;;;5.97;3.65;;;16.80;1.00;;;;;;6166033;23;20021;-91
2022/08/07 05:47:03;;;;;;;5.40;4.15;;;16.80;1.00;;;;;;6162909;23;20025;-91
2022/08/07 05:49:54;;;;;;;5.32;3.80;;;16.90;1.00;;;;;;6142455;23;20040;-90
2022/08/07 05:52:23;;;;;;;5.55;3.58;;;16.80;1.00;;;;;;6138345;23;20099;-90
2022/08/07 05:55:08;;;;;;;4.97;3.50;;;16.90;1.00;;;;;;6140328;23;20021;-90
2022/08/07 05:57:46;;;;;;;5.32;3.65;;;16.90;1.00;;;;;;6187073;23;20072;-91
2022/08/07 06:00:17;;;;;;;5.50;3.92;;;16.90;1.00;;;;;;6141862;23;20052;-90
2022/08/07 06:03:01;;;;;;;5.05;3.60;;;16.90;1.00;;;;;;6167475;23;20025;-90
2022/08/07 06:05:33;;;;;;;4.90;3.55;;;16.90;1.00;;;;;;6190244;23;20005;-90
2022/08/07 06:08:13;;;;;;;11.15;4.22;;;16.90;1.00;;;;;;6191187;23;20028;-90
2022/08/07 06:11:03;;;;;;;6.18;4.35;;;16.90;1.00;;;;;;6189136;23;20004;-90
2022/08/07 06:13:39;;;;;;;5.57;3.80;;;16.90;1.00;;;;;;6207505;23;20487;-90
2022/08/07 06:16:32;;;;;;;6.03;4.15;;;16.90;1.00;;;;;;6186728;23;20349;-90
2022/08/07 06:19:09;;;;;;;5.78;3.85;;;16.90;1.00;;;;;;6138899;23;20039;-92
2022/08/07 06:21:48;;;;;;;5.47;4.15;;;17.00;1.00;;;;;;6161179;23;20045;-90
2022/08/07 06:24:42;;;;;;;4.95;3.47;;;16.90;1.00;;;;;;6141325;23;20013;-91
2022/08/07 06:27:23;;;;;;;5.47;3.83;;;16.90;1.00;;;;;;6139857;23;20021;-91
2022/08/07 06:30:12;;;;;;;5.10;3.90;;;16.90;1.00;;;;;;6142298;23;20028;-90
2022/08/07 06:32:53;;;;;;;7.32;3.70;;;17.00;1.00;;;;;;6139822;23;20326;-91
2022/08/07 06:35:26;;;;;;;8.07;3.30;;;17.00;1.00;;;;;;6139459;23;20322;-90
2022/08/07 06:38:13;;;;;;;5.90;3.60;;;17.00;1.00;;;;;;6168491;23;20025;-91
2022/08/07 06:40:54;;;;;;;4.43;2.75;;;17.00;1.00;;;;;;6187779;23;20032;-91
2022/08/07 06:43:27;;;;;;;5.18;3.10;;;17.00;1.00;;;;;;6139029;23;20020;-91
2022/08/07 06:46:15;;;;;;;6.07;3.85;;;17.10;1.00;;;;;;6166755;23;20022;-91
2022/08/07 06:49:07;;;;;;;4.70;2.47;;;17.10;1.00;;;;;;6189367;23;20017;-91
2022/08/07 06:51:45;;;;;;;4.55;2.90;;;17.10;1.00;;;;;;6163048;23;20103;-92
2022/08/07 06:54:25;;;;;;;3.72;2.30;;;17.10;1.00;;;;;;6140386;23;20488;-91
2022/08/07 06:57:13;;;;;;;6.65;3.38;;;17.20;1.00;;;;;;6161850;23;20021;-92
2022/08/07 06:59:48;;;;;;;4.97;3.08;;;17.20;1.00;;;;;;6137789;23;20124;-92
2022/08/07 07:02:40;;;;;;;5.68;2.83;;;17.20;1.00;;;;;;6161064;23;20484;-92
2022/08/07 07:05:23;;;;;;;3.03;2.28;;;17.30;1.00;;;;;;6140082;23;20108;-92
2022/08/07 07:08:17;;;;;;;3.40;2.50;;;17.30;1.00;;;;;;6166368;23;20021;-92
2022/08/07 07:10:54;;;;;;;5.60;2.63;;;17.30;1.00;;;;;;6138097;23;20013;-92
2022/08/07 07:13:38;;;;;;;6.95;3.33;;;17.40;1.00;;;;;;6160067;23;20029;-92
2022/08/07 07:16:33;;;;;;;3.20;2.60;;;17.30;1.00;;;;;;6181234;23;20071;-92
2022/08/07 07:19:22;;;;;;;4.13;2.70;;;17.40;1.00;;;;;;6139796;23;20028;-91
2022/08/07 07:22:16;;;;;;;4.82;2.65;;;17.50;1.00;;;;;;6161190;23;20075;-91
2022/08/07 07:25:07;;;;;;;3.93;2.83;;;17.50;1.00;;;;;;6141361;23;20021;-92
2022/08/07 07:28:15;;;;;;;3.55;2.85;;;17.50;1.00;;;;;;6161689;23;20013;-92
2022/08/07 07:31:30;;;;;;;3.97;3.33;;;17.50;1.00;;;;;;6140856;23;20017;-92
2022/08/07 07:34:15;;;;;;;4.50;3.78;;;17.60;1.00;;;;;;6154090;23;20013;-92
2022/08/07 07:36:48;;;;;;;4.22;3.22;;;17.60;1.00;;;;;;6160979;23;20017;-92
2022/08/07 07:39:25;;;;;;;5.00;3.25;;;17.60;1.00;;;;;;6137575;23;20020;-92
2022/08/07 07:42:18;;;;;;;4.28;2.95;;;17.60;1.00;;;;;;6187916;23;20021;-92
2022/08/07 07:44:48;;;;;;;6.07;3.10;;;17.60;1.00;;;;;;6215561;23;20009;-92
2022/08/07 07:47:23;;;;;;;4.72;3.30;;;17.60;1.00;;;;;;6167202;23;20027;-92
2022/08/07 07:49:57;;;;;;;3.30;2.45;;;17.60;1.00;;;;;;6191045;23;20016;-92
2022/08/07 07:52:49;;;;;;;5.57;3.45;;;17.60;1.00;;;;;;6191406;23;20092;-92
2022/08/07 07:55:22;;;;;;;5.43;3.45;;;17.70;1.00;;;;;;6191321;23;20021;-91
2022/08/07 07:57:57;;;;;;;5.20;3.95;;;17.70;1.00;;;;;;6166805;23;20028;-92
2022/08/07 08:00:27;;;;;;;3.55;2.63;;;17.70;1.00;;;;;;6166237;23;20029;-92
2022/08/07 08:03:20;;;;;;;4.88;3.40;;;17.70;1.00;;;;;;6167859;23;20020;-91
2022/08/07 08:06:08;;;;;;;4.88;3.55;;;17.70;1.00;;;;;;6169780;23;20020;-91
2022/08/07 08:08:43;;;;;;;4.40;3.80;;;17.80;1.00;;;;;;6190142;23;20025;-92
2022/08/07 08:11:12;;;;;;;6.47;3.13;;;17.70;1.00;;;;;;6190570;23;20016;-91
2022/08/07 08:14:03;;;;;;;5.65;3.53;;;17.70;1.00;;;;;;6191939;23;20099;-92
2022/08/07 08:16:42;;;;;;;4.60;3.05;;;17.80;1.00;;;;;;6215809;23;20017;-92
2022/08/07 08:19:24;;;;;;;4.95;3.33;;;17.90;1.00;;;;;;6192339;23;20074;-91
2022/08/07 08:28:12;;;;;;;4.72;2.95;;;18.10;1.00;;;;;;6190400;23;20478;-92
2022/08/07 08:31:06;;;;;;;3.50;2.85;;;18.10;1.00;;;;;;6210461;23;20016;-92
2022/08/07 08:33:58;;;;;;;3.67;2.70;;;18.20;1.00;;;;;;6170765;23;20035;-92
2022/08/07 08:36:31;;;;;;;5.30;2.92;;;18.20;1.00;;;;;;6189929;23;20016;-92
2022/08/07 08:39:18;;;;;;;3.42;2.85;;;18.10;1.00;;;;;;6167228;23;20020;-92
2022/08/07 08:42:06;;;;;;;4.57;3.50;;;18.10;1.00;;;;;;6215932;23;20072;-92
2022/08/07 08:44:45;;;;;;;3.17;2.72;;;18.20;1.00;;;;;;6191170;23;20029;-92
2022/08/07 08:47:24;;;;;;;5.50;2.50;;;18.20;1.00;;;;;;6208489;22;20007;-92
2022/08/07 08:50:21;;;;;;;5.55;2.70;;;18.30;1.00;;;;;;6193963;22;20025;-92
2022/08/07 08:53:29;;;;;;;4.57;3.10;;;18.30;1.00;;;;;;6221805;22;20001;-91
2022/08/07 08:56:03;;;;;;;;;;;18.30;1.00;;;;;;6167455;22;20001;-91
2022/08/07 08:59:05;;;;;;;6.85;2.53;;;18.40;1.00;;;;;;6214883;23;19922;-92
2022/08/07 09:01:43;;;;;;;3.47;2.33;;;18.50;1.00;;;;;;6168443;23;20071;-91
2022/08/07 09:04:21;;;;;;;4.75;3.10;;;18.50;1.00;;;;;;6192646;23;20340;-92
2022/08/07 09:07:20;;;;;;;2.57;2.27;;;18.50;1.00;;;;;;6193683;23;20096;-92
2022/08/07 09:10:10;;;;;;;3.22;2.42;;;18.50;1.00;;;;;;6167555;23;20020;-91
2022/08/07 09:13:20;;;;;;;4.18;2.60;;;18.70;1.00;;;;;;6192645;23;20013;-91
2022/08/07 09:16:37;;;;;;;2.90;2.40;;;18.50;1.00;;;;;;6194639;23;20017;-91
2022/08/07 09:19:37;;;;;;;4.10;2.60;;;18.50;1.00;;;;;;6191117;23;20100;-91
2022/08/07 09:22:44;;;;;;;3.33;2.25;;;18.60;1.00;;;;;;6169326;23;20383;-93
2022/08/07 09:26:17;;;;;;;4.90;3.08;;;18.60;1.00;;;;;;6170613;23;20411;-92
2022/08/07 09:29:06;;;;;;;3.88;2.20;;;18.70;1.00;;;;;;6145578;23;20021;-92
2022/08/07 09:32:23;;;;;;;3.72;3.38;;;18.80;1.00;;;;;;6170776;23;20021;-92
2022/08/07 09:35:15;;;;;;;3.05;2.42;;;18.80;1.00;;;;;;6192414;23;20028;-92
2022/08/07 09:38:10;;;;;;;4.70;2.45;;;18.80;1.00;;;;;;6196595;23;20013;-91
2022/08/07 09:41:09;;;;;;;3.72;2.30;;;18.90;1.00;;;;;;6189129;23;20349;-91
2022/08/07 09:44:26;;;;;;;2.88;2.22;;;18.90;1.00;;;;;;6138783;23;20020;-92
2022/08/07 09:47:58;;;;;;;4.70;2.90;;;18.70;1.00;;;;;;6160352;23;20024;-92
2022/08/07 09:50:57;;;;;;;6.32;2.65;;;18.80;1.00;;;;;;6161705;23;20019;-92
2022/08/07 09:53:48;;;;;;;3.40;2.13;;;18.90;1.00;;;;;;6141200;23;20020;-91
2022/08/07 09:57:04;;;;;;;3.33;2.10;;;18.90;1.00;;;;;;6184867;23;20044;-92
2022/08/07 10:00:08;;;;;;;2.75;2.17;;;19.20;1.00;;;;;;6161885;23;20024;-91
2022/08/07 10:03:03;;;;;;;5.93;1.77;;;19.20;1.00;;;;;;6161363;23;20021;-92
2022/08/07 10:06:25;;;;;;;7.03;2.33;;;19.40;1.00;;;;;;6141056;23;20021;-91
2022/08/07 10:09:28;;;;;;;2.83;1.98;;;19.50;1.00;;;;;;6092427;23;20143;-92
2022/08/07 10:12:27;;;;;;;2.83;2.35;;;19.40;1.00;;;;;;6183122;23;20024;-92
2022/08/07 10:15:26;;;;;;;3.25;1.90;;;19.40;1.00;;;;;;6137806;23;20021;-91
2022/08/07 10:18:35;;;;;;;2.28;1.30;;;19.50;1.00;;;;;;6161409;23;20087;-92
2022/08/07 10:21:20;;;;;;;5.63;1.67;;;19.70;1.00;;;;;;6126337;23;20031;-92
2022/08/07 10:24:10;;;;;;;3.75;2.63;;;19.90;1.00;;;;;;6187132;23;20017;-91
2022/08/07 10:27:06;;;;;;;4.05;2.13;;;19.90;1.00;;;;;;6161739;23;20039;-93
2022/08/07 10:29:45;;;;;;;2.85;2.15;;;19.90;1.00;;;;;;6137774;23;20017;-89
2022/08/07 10:32:39;;;;;;;2.58;2.08;;;20.00;1.00;;;;;;6162776;23;20437;-91
2022/08/07 10:35:28;;;;;;;2.88;2.30;;;20.10;1.00;;;;;;6161024;23;20059;-91
2022/08/07 10:38:55;;;;;;;4.88;1.90;;;20.20;1.00;;;;;;6161236;23;20021;-92
2022/08/07 10:41:50;;;;;;;4.68;1.92;;;20.40;1.00;;;;;;6173342;23;20452;-92
2022/08/07 10:44:51;;;;;;;2.80;2.30;;;20.50;1.00;;;;;;6212170;23;20016;-91
2022/08/07 10:47:43;;;;;;;3.97;1.80;;;20.40;1.00;;;;;;6191801;23;20071;-91
2022/08/07 10:50:50;;;;;;;1.95;1.73;;;20.40;1.00;;;;;;6168053;23;20044;-91
2022/08/07 10:53:54;;;;;;;3.42;2.22;;;20.40;1.00;;;;;;6193234;23;20017;-92
2022/08/07 10:57:03;;;;;;;2.58;2.13;;;20.60;1.00;;;;;;6167299;23;20020;-92
2022/08/07 10:59:47;;;;;;;4.45;2.15;;;20.70;1.00;;;;;;6167962;23;20043;-92
2022/08/07 11:02:57;;;;;;;3.13;1.70;;;20.80;1.00;;;;;;6193502;23;20017;-91
2022/08/07 11:05:40;;;;;;;2.22;1.77;;;20.90;1.00;;;;;;6168374;23;20021;-91
2022/08/07 11:08:53;;;;;;;2.03;1.67;;;21.10;1.00;;;;;;6169828;23;20020;-91
2022/08/07 11:11:38;;;;;;;2.75;1.80;;;21.00;1.00;;;;;;6167649;23;20100;-91
2022/08/07 11:14:24;;;;;;;4.00;2.10;;;21.10;1.00;;;;;;6167092;23;20017;-92
2022/08/07 11:17:33;;;;;;;4.15;1.67;;;21.20;1.00;;;;;;6191937;23;20332;-92
2022/08/07 11:20:25;;;;;;;2.72;2.05;;;21.50;1.00;;;;;;6190915;23;20024;-91
2022/08/07 11:23:27;;;;;;;5.30;2.08;;;21.50;1.00;;;;;;6192162;23;20070;-92
2022/08/07 11:26:17;;;;;;;3.33;1.45;;;21.60;1.00;;;;;;6191726;23;20024;-91
2022/08/07 11:29:23;;;;;;;4.13;2.10;;;21.60;1.00;;;;;;6192850;23;20016;-91
2022/08/07 11:32:15;;;;;;;2.85;1.80;;;21.60;1.00;;;;;;6218472;22;20032;-91
2022/08/07 11:35:00;;;;;;;3.85;1.65;;;21.70;1.00;;;;;;6195764;22;20008;-92
2022/08/07 11:38:08;;;;;;;2.38;1.92;;;21.90;1.00;;;;;;6240005;22;20004;-91
2022/08/07 11:41:00;;;;;;;3.17;1.75;;;22.00;1.00;;;;;;6190680;23;20024;-91
2022/08/07 11:44:22;;;;;;;8.20;2.00;;;22.10;1.00;;;;;;6189223;23;20031;-91
2022/08/07 11:47:09;;;;;;;2.65;1.90;;;22.20;1.00;;;;;;6162351;23;20063;-91
2022/08/07 11:49:50;;;;;;;3.97;2.25;;;22.40;1.00;;;;;;6136386;23;20048;-93
2022/08/07 11:53:05;;;;;;;4.05;1.90;;;22.60;1.00;;;;;;6161210;23;20028;-92
2022/08/07 11:56:03;;;;;;;4.55;1.70;;;22.60;1.00;;;;;;6162585;23;20023;-92
2022/08/07 11:59:33;;;;;;;4.53;1.58;;;22.60;1.00;;;;;;6138697;23;20020;-93
2022/08/07 12:02:47;;;;;;;4.40;2.13;;;22.80;1.00;;;;;;6141716;23;20321;-92
2022/08/07 12:05:40;;;;;;;2.15;1.45;;;23.00;1.00;;;;;;6138460;23;20020;-92
2022/08/07 12:08:29;;;;;;;3.50;1.83;;;23.00;1.00;;;;;;6164906;23;20044;-92
2022/08/07 12:11:20;;;;;;;2.38;1.63;;;23.10;1.00;;;;;;6160406;23;20025;-91
2022/08/07 12:14:07;;;;;;;2.28;1.67;;;23.30;1.00;;;;;;6139120;23;20060;-92
2022/08/07 12:17:10;;;;;;;2.15;1.73;;;23.40;1.00;;;;;;6183341;23;20028;-92
2022/08/07 12:20:08;;;;;;;2.22;1.52;;;23.40;1.00;;;;;;6155913;23;20020;-92
2022/08/07 12:23:09;;;;;;;3.08;1.70;;;23.50;1.00;;;;;;6141326;23;20040;-92
2022/08/07 12:25:58;;;;;;;3.05;2.10;;;23.40;1.00;;;;;;6138913;23;20104;-92
2022/08/07 12:29:13;;;;;;;2.33;1.50;;;23.70;1.00;;;;;;6142696;23;20468;-92
2022/08/07 12:32:53;;;;;;;3.58;1.63;;;23.80;1.00;;;;;;6186940;23;20060;-93
2022/08/07 12:35:30;;;;;;;2.83;2.00;;;23.80;1.00;;;;;;6137000;23;20013;-92
2022/08/07 12:38:06;;;;;;;2.72;1.83;;;24.00;1.00;;;;;;6160763;23;20028;-93
2022/08/07 12:41:01;;;;;;;1.73;1.50;;;24.10;1.00;;;;;;6165564;23;20021;-90
2022/08/07 12:43:45;;;;;;;2.10;1.60;;;24.20;1.00;;;;;;6185272;23;20331;-90
2022/08/07 12:47:06;;;;;;;2.35;1.63;;;24.20;1.00;;;;;;6140128;23;20100;-92
2022/08/07 12:49:49;;;;;;;3.22;1.75;;;24.30;1.00;;;;;;6136429;23;20021;-91
2022/08/07 12:52:45;;;;;;;2.92;1.63;;;24.30;1.00;;;;;;6163599;23;20456;-91
2022/08/07 12:55:50;;;;;;;1.92;1.38;;;24.50;1.00;;;;;;6164121;23;20021;-91
2022/08/07 12:58:46;;;;;;;2.88;1.40;;;24.50;1.00;;;;;;6163536;23;20028;-90
2022/08/07 13:01:46;;;;;;;3.03;1.27;;;24.50;1.00;;;;;;6160815;23;20029;-91
2022/08/07 13:04:45;;;;;;;5.15;1.52;;;24.50;1.00;;;;;;6138154;23;20052;-91
2022/08/07 13:07:55;;;;;;;2.72;1.40;;;24.40;1.00;;;;;;6160371;23;20021;-90
2022/08/07 13:11:23;;;;;;;3.92;1.75;;;24.60;1.00;;;;;;6140084;23;20020;-91
2022/08/07 13:14:36;;;;;;;5.80;1.20;;;24.80;1.00;;;;;;6128943;23;20087;-90
2022/08/07 13:17:31;;;;;;;1.95;1.52;;;24.70;1.00;;;;;;6162832;23;20072;-90
2022/08/07 13:20:24;;;;;;;2.85;1.40;;;24.60;1.00;;;;;;6160608;23;20017;-90
2022/08/07 13:23:16;;;;;;;4.18;1.85;;;24.30;1.00;;;;;;6162044;23;20025;-91
2022/08/07 13:26:34;;;;;;;4.03;1.75;;;24.40;1.00;;;;;;6143383;23;20093;-92
2022/08/07 13:29:56;;;;;;;2.85;1.40;;;24.50;1.00;;;;;;6137673;23;20441;-91
2022/08/07 13:36:54;;;;;;;3.33;2.40;;;24.30;1.00;;;;;;6188472;23;20096;-90
2022/08/07 13:40:18;;;;;;;2.40;1.38;;;24.40;1.00;;;;;;6163074;23;20518;-93
2022/08/07 13:43:11;;;;;;;4.15;1.90;;;24.50;1.00;;;;;;6141984;23;20396;-90
2022/08/07 13:45:47;;;;;;;2.13;1.35;;;24.60;1.00;;;;;;6138381;23;20032;-93
2022/08/07 13:48:43;;;;;;;3.10;1.70;;;24.60;1.00;;;;;;6162648;23;20024;-90
2022/08/07 13:51:29;;;;;;;4.03;1.92;;;24.80;1.00;;;;;;6140562;23;20021;-93
2022/08/07 13:54:32;;;;;;;2.28;1.83;;;24.90;1.00;;;;;;6169192;23;20024;-91
2022/08/07 13:57:19;;;;;;;2.75;2.05;;;25.00;1.00;;;;;;6164848;23;20406;-95
2022/08/07 14:00:16;;;;;;;4.03;1.58;;;25.10;1.00;;;;;;6139260;23;20021;-91
2022/08/07 14:03:04;;;;;;;2.50;1.55;;;25.30;1.00;;;;;;6142045;23;20345;-91
2022/08/07 14:05:45;;;;;;;3.22;1.70;;;25.20;1.00;;;;;;6140541;23;20352;-90
2022/08/07 14:08:16;;;;;;;;;;;25.40;1.00;;;;;;6163760;23;20287;-91
2022/08/07 14:10:53;;;;;;;3.85;1.60;;;25.30;1.00;;;;;;6164549;23;19920;-91
2022/08/07 14:13:54;;;;;;;5.32;1.40;;;25.40;1.00;;;;;;6164712;23;20009;-91
2022/08/07 14:16:49;;;;;;;3.83;2.08;;;25.50;1.00;;;;;;6189362;23;20012;-91
2022/08/07 14:20:49;;;;;;;2.85;1.65;;;25.50;1.00;;;;;;6124927;23;20006;-91
2022/08/07 14:24:48;;;;;;;3.40;1.48;;;25.60;1.00;;;;;;6038256;23;20490;-90
2022/08/07 14:27:47;;;;;;;4.00;1.85;;;25.70;1.00;;;;;;6015502;23;20056;-92
2022/08/07 14:31:12;;;;;;;2.65;1.60;;;25.70;1.00;;;;;;6053368;23;20023;-92
2022/08/07 14:33:49;;;;;;;2.22;1.40;;;25.70;1.00;;;;;;6058048;23;20019;-91
2022/08/07 15:15:12;;;;;;;3.25;1.73;;;27.40;1.00;;;;;;6191616;23;20087;-90
2022/08/07 15:17:58;;;;;;;4.57;1.67;;;27.40;1.00;;;;;;6194320;23;20016;-89
2022/08/07 15:20:39;;;;;;;2.53;1.30;;;27.70;1.00;;;;;;6167889;23;20107;-90
2022/08/07 15:23:33;;;;;;;2.65;1.92;;;27.90;1.00;;;;;;6196197;23;20071;-91
2022/08/07 15:26:34;;;;;;;2.92;2.55;;;28.00;1.00;;;;;;6171100;23;20023;-89
2022/08/07 15:29:04;;;;;;;2.00;1.15;;;28.40;1.00;;;;;;6166119;23;20348;-89
2022/08/07 15:31:52;;;;;;;2.38;1.50;;;28.40;1.00;;;;;;6195418;23;20021;-90
2022/08/07 15:34:37;;;;;;;2.15;1.38;;;28.20;1.00;;;;;;6167890;23;20067;-90
2022/08/07 15:37:27;;;;;;;3.45;1.60;;;28.40;1.00;;;;;;6218201;23;20012;-91
2022/08/07 15:40:20;;;;;;;3.25;1.70;;;28.40;1.00;;;;;;6170653;23;20020;-91